createdAt,value
2023-02-11T00:01:18.303Z,28.27
2023-02-11T00:03:48.223Z,25.27
2023-02-11T00:06:16.765Z,24.43
2023-02-11T00:08:45.187Z,32.40
2023-02-11T00:11:14.628Z,25.40
2023-02-11T00:13:43.184Z,30.10
2023-02-11T00:16:12.066Z,23.97
2023-02-11T00:18:40.547Z,22.10
2023-02-11T00:21:10.692Z,27.80
2023-02-11T00:23:39.124Z,23.20
2023-02-11T00:26:13.004Z,18.67
2023-02-11T00:28:41.412Z,23.87
2023-02-11T00:31:10.134Z,25.33
2023-02-11T00:33:38.606Z,20.80
2023-02-11T00:36:07.253Z,23.27
2023-02-11T00:38:37.024Z,24.63
2023-02-11T00:41:05.490Z,16.23
2023-02-11T00:43:33.880Z,29.20
2023-02-11T00:46:02.287Z,26.50
2023-02-11T00:48:31.126Z,25.20
2023-02-11T00:50:59.563Z,15.43
2023-02-11T00:53:31.854Z,22.87
2023-02-11T00:56:02.061Z,28.07
2023-02-11T00:58:30.592Z,18.73
2023-02-11T01:00:59.066Z,22.07
2023-02-11T01:03:27.503Z,20.67
2023-02-11T01:05:55.891Z,23.33
2023-02-11T01:08:24.303Z,21.67
2023-02-11T01:10:56.126Z,26.43
2023-02-11T01:13:25.906Z,21.60
2023-02-11T01:15:54.476Z,23.23
2023-02-11T01:18:22.962Z,16.93
2023-02-11T01:20:51.282Z,19.37
2023-02-11T01:23:19.650Z,21.33
2023-02-11T01:25:48.591Z,27.43
2023-02-11T01:28:18.357Z,19.40
2023-02-11T01:30:48.218Z,25.77
2023-02-11T01:33:16.617Z,15.50
2023-02-11T01:35:45.327Z,30.53
2023-02-11T01:38:16.579Z,17.87
2023-02-11T01:40:48.582Z,30.10
2023-02-11T01:43:17.047Z,22.60
2023-02-11T01:45:58.166Z,27.53
2023-02-11T01:48:27.671Z,22.27
2023-02-11T01:50:56.941Z,26.40
2023-02-11T01:53:43.232Z,22.50
2023-02-11T01:56:29.474Z,24.10
2023-02-11T01:58:59.042Z,19.33
2023-02-11T02:01:29.114Z,20.67
2023-02-11T02:03:58.682Z,22.83
2023-02-11T02:06:28.127Z,26.00
2023-02-11T02:08:57.785Z,22.70
2023-02-11T02:11:26.536Z,25.60
2023-02-11T02:13:54.969Z,25.13
2023-02-11T02:16:23.595Z,23.73
2023-02-11T02:18:54.660Z,20.70
2023-02-11T02:21:37.908Z,24.23
2023-02-11T02:24:21.180Z,21.70
2023-02-11T02:26:55.951Z,19.33
2023-02-11T02:29:29.724Z,25.93
2023-02-11T02:32:16.580Z,23.20
2023-02-11T02:34:46.697Z,15.60
2023-02-11T02:37:17.215Z,20.67
2023-02-11T02:39:45.686Z,19.53
2023-02-11T02:42:14.182Z,25.77
2023-02-11T02:44:42.654Z,23.10
2023-02-11T02:47:11.120Z,24.10
2023-02-11T02:49:39.628Z,24.07
2023-02-11T02:52:16.664Z,22.47
2023-02-11T02:55:04.701Z,19.30
2023-02-11T02:57:34.414Z,37.23
2023-02-11T03:00:09.552Z,24.73
2023-02-11T03:02:38.537Z,26.03
2023-02-11T03:05:09.111Z,28.07
2023-02-11T03:07:39.674Z,22.63
2023-02-11T03:10:09.528Z,24.50
2023-02-11T03:12:37.986Z,23.97
2023-02-11T03:15:07.069Z,26.77
2023-02-11T03:17:35.694Z,21.70
2023-02-11T03:20:04.337Z,27.30
2023-02-11T03:22:34.751Z,20.53
2023-02-11T03:25:04.754Z,22.37
2023-02-11T03:27:34.885Z,27.90
2023-02-11T03:30:03.576Z,26.07
2023-02-11T03:32:34.992Z,26.70
2023-02-11T03:35:04.471Z,22.80
2023-02-11T03:37:33.797Z,26.43
2023-02-11T03:40:02.693Z,28.80
2023-02-11T03:42:34.373Z,29.13
2023-02-11T03:45:05.340Z,20.87
2023-02-11T03:47:34.096Z,19.90
2023-02-11T03:50:02.867Z,26.23
2023-02-11T03:52:31.657Z,23.03
2023-02-11T03:55:00.527Z,28.63
2023-02-11T03:57:29.345Z,25.50
2023-02-11T03:59:59.745Z,31.27
2023-02-11T04:02:29.056Z,28.20
2023-02-11T04:04:57.706Z,30.70
2023-02-11T04:07:26.214Z,25.40
2023-02-11T04:09:54.686Z,29.07
2023-02-11T04:12:23.314Z,24.33
2023-02-11T04:14:51.855Z,27.77
2023-02-11T04:17:21.660Z,30.37
2023-02-11T04:19:50.086Z,30.40
2023-02-11T04:22:18.654Z,24.80
2023-02-11T04:24:47.211Z,31.67
2023-02-11T04:27:15.677Z,28.77
2023-02-11T04:29:44.200Z,35.13
2023-02-11T04:32:12.724Z,26.10
2023-02-11T04:34:42.670Z,25.07
2023-02-11T04:37:11.058Z,32.93
2023-02-11T04:39:39.514Z,33.60
2023-02-11T04:42:08.131Z,31.53
2023-02-11T04:44:36.584Z,28.87
2023-02-11T04:47:05.280Z,29.33
2023-02-11T04:49:34.081Z,36.77
2023-02-11T04:52:04.046Z,28.13
2023-02-11T04:54:32.589Z,31.10
2023-02-11T04:57:01.197Z,25.97
2023-02-11T04:59:29.689Z,33.27
2023-02-11T05:01:58.155Z,33.27
2023-02-11T05:04:26.614Z,38.37
2023-02-11T05:06:56.599Z,44.17
2023-02-11T05:09:28.311Z,36.20
2023-02-11T05:11:56.953Z,41.43
2023-02-11T05:14:25.422Z,33.77
2023-02-11T05:16:53.952Z,33.77
2023-02-11T05:19:22.528Z,37.27
2023-02-11T05:22:02.182Z,34.43
2023-02-11T05:24:33.477Z,37.47
2023-02-11T05:27:01.944Z,48.60
2023-02-11T05:29:30.367Z,39.77
2023-02-11T05:31:58.806Z,39.57
2023-02-11T05:34:27.210Z,35.07
2023-02-11T05:36:55.703Z,46.53
2023-02-11T05:39:24.154Z,39.80
2023-02-11T05:41:53.997Z,44.67
2023-02-11T05:44:22.678Z,40.00
2023-02-11T05:46:51.081Z,40.33
2023-02-11T05:49:19.424Z,42.53
2023-02-11T05:51:47.987Z,41.27
2023-02-11T05:54:16.747Z,44.67
2023-02-11T05:56:45.247Z,39.47
2023-02-11T05:59:15.747Z,44.80
2023-02-11T06:01:44.133Z,41.17
2023-02-11T06:04:12.528Z,38.57
2023-02-11T06:06:40.941Z,37.60
2023-02-11T06:09:09.395Z,58.93
2023-02-11T06:11:37.739Z,45.53
2023-02-11T06:14:06.369Z,48.77
2023-02-11T06:16:36.171Z,47.50
2023-02-11T06:19:04.673Z,43.97
2023-02-11T06:21:43.400Z,50.33
2023-02-11T06:24:12.587Z,47.60
2023-02-11T06:26:41.044Z,48.93
2023-02-11T06:29:09.695Z,44.93
2023-02-11T06:31:41.129Z,47.50
2023-02-11T06:34:10.427Z,53.93
2023-02-11T06:36:39.068Z,49.43
2023-02-11T06:39:07.516Z,50.97
2023-02-11T06:41:36.035Z,48.30
2023-02-11T06:44:04.469Z,52.93
2023-02-11T06:46:33.200Z,53.23
2023-02-11T06:49:03.140Z,47.87
2023-02-11T06:51:31.560Z,50.53
2023-02-11T06:54:00.254Z,44.37
2023-02-11T06:56:28.894Z,45.57
2023-02-11T06:58:57.300Z,48.17
2023-02-11T07:01:27.154Z,51.57
2023-02-11T07:03:55.702Z,49.53
2023-02-11T07:06:27.274Z,48.60
2023-02-11T07:08:55.661Z,47.20
2023-02-11T07:11:25.407Z,51.37
2023-02-11T07:13:54.162Z,50.70
2023-02-11T07:16:22.679Z,46.47
2023-02-11T07:18:51.573Z,54.70
2023-02-11T07:21:20.728Z,50.30
2023-02-11T07:23:50.826Z,53.90
2023-02-11T07:26:19.990Z,50.33
2023-02-11T07:28:51.415Z,55.73
2023-02-11T07:31:20.756Z,56.33
2023-02-11T07:33:49.247Z,54.37
2023-02-11T07:36:17.862Z,51.20
2023-02-11T07:38:46.334Z,51.27
2023-02-11T07:41:16.428Z,57.47
2023-02-11T07:43:44.976Z,54.60
2023-02-11T07:46:13.989Z,56.33
2023-02-11T07:48:42.499Z,52.43
2023-02-11T07:51:11.185Z,53.53
2023-02-11T07:53:39.676Z,59.37
2023-02-11T07:56:08.601Z,61.47
2023-02-11T07:58:38.329Z,51.27
2023-02-11T08:01:08.596Z,51.73
2023-02-11T08:03:37.305Z,55.40
2023-02-11T08:06:06.173Z,52.03
2023-02-11T08:08:38.058Z,54.03
2023-02-11T08:11:09.627Z,55.97
2023-02-11T08:13:39.566Z,51.90
2023-02-11T08:16:08.316Z,52.07
2023-02-11T08:18:36.974Z,49.30
2023-02-11T08:21:06.654Z,55.83
2023-02-11T08:23:35.229Z,55.07
2023-02-11T08:26:04.584Z,49.77
2023-02-11T08:28:33.035Z,50.13
2023-02-11T08:31:03.578Z,47.27
2023-02-11T08:33:32.090Z,47.30
2023-02-11T08:36:00.636Z,52.83
2023-02-11T08:38:29.076Z,42.73
2023-02-11T08:40:57.433Z,44.57
2023-02-11T08:43:25.947Z,42.53
2023-02-11T08:45:54.606Z,39.37
2023-02-11T08:48:24.499Z,38.67
2023-02-11T08:50:52.917Z,36.80
2023-02-11T08:53:21.342Z,38.70
2023-02-11T08:55:52.799Z,40.33
2023-02-11T08:58:21.798Z,42.87
2023-02-11T09:00:51.024Z,35.80
2023-02-11T09:03:19.885Z,37.17
2023-02-11T09:05:50.145Z,39.00
2023-02-11T09:08:18.790Z,30.93
2023-02-11T09:10:47.328Z,35.00
2023-02-11T09:13:16.500Z,36.33
2023-02-11T09:15:46.852Z,34.33
2023-02-11T09:18:15.242Z,29.20
2023-02-11T09:20:43.636Z,31.37
2023-02-11T09:23:13.718Z,37.50
2023-02-11T09:25:42.437Z,29.73
2023-02-11T09:28:11.598Z,32.97
2023-02-11T09:30:40.133Z,24.33
2023-02-11T09:33:08.600Z,37.13
2023-02-11T09:35:37.051Z,25.37
2023-02-11T09:38:05.850Z,25.23
2023-02-11T09:40:35.901Z,24.10
2023-02-11T09:43:05.482Z,24.80
2023-02-11T09:45:40.031Z,23.27
2023-02-11T09:48:12.447Z,21.73
2023-02-11T09:50:41.416Z,23.53
2023-02-11T09:53:12.045Z,20.43
2023-02-11T09:55:45.617Z,24.40
2023-02-11T09:58:14.474Z,22.10
2023-02-11T10:00:44.079Z,21.10
2023-02-11T10:03:31.021Z,19.97
2023-02-11T10:06:04.121Z,22.23
2023-02-11T10:08:33.116Z,23.87
2023-02-11T10:11:04.403Z,26.47
2023-02-11T10:13:42.843Z,19.50
2023-02-11T10:16:14.366Z,21.20
2023-02-11T10:18:47.780Z,21.80
2023-02-11T10:21:19.394Z,24.17
2023-02-11T10:23:48.781Z,24.13
2023-02-11T10:26:18.726Z,25.00
2023-02-11T10:28:48.023Z,27.30
2023-02-11T10:31:18.129Z,26.60
2023-02-11T10:33:47.007Z,24.47
2023-02-11T10:36:15.762Z,20.23
2023-02-11T10:38:44.442Z,22.63
2023-02-11T10:41:12.974Z,19.47
2023-02-11T10:43:42.683Z,23.37
2023-02-11T10:46:13.063Z,21.10
2023-02-11T10:48:42.881Z,21.40
2023-02-11T10:51:17.346Z,23.77
2023-02-11T10:53:45.782Z,19.10
2023-02-11T10:56:14.551Z,24.53
2023-02-11T10:58:46.035Z,21.27
2023-02-11T11:01:24.249Z,20.40
2023-02-11T11:03:53.515Z,22.27
2023-02-11T11:06:30.159Z,25.57
2023-02-11T11:08:58.728Z,20.73
2023-02-11T11:11:27.485Z,23.60
2023-02-11T11:13:59.208Z,26.13
2023-02-11T11:16:28.301Z,22.73
2023-02-11T11:19:16.992Z,23.83
2023-02-11T11:21:45.775Z,25.90
2023-02-11T11:24:17.917Z,22.17
2023-02-11T11:26:46.802Z,20.17
2023-02-11T11:29:17.258Z,26.37
2023-02-11T11:31:49.474Z,20.80
2023-02-11T11:34:22.711Z,21.87
2023-02-11T11:36:51.459Z,22.60
2023-02-11T11:39:21.043Z,19.90
2023-02-11T11:41:56.635Z,24.37
2023-02-11T11:44:27.804Z,23.30
2023-02-11T11:46:58.446Z,26.10
2023-02-11T11:49:27.759Z,25.20
2023-02-11T11:51:57.450Z,28.40
2023-02-11T11:54:25.882Z,28.70
2023-02-11T11:56:55.747Z,25.17
2023-02-11T11:59:24.753Z,25.70
2023-02-11T12:02:05.306Z,24.77
2023-02-11T12:04:45.357Z,25.10
2023-02-11T12:07:17.822Z,23.03
2023-02-11T12:09:49.075Z,23.83
2023-02-11T12:12:21.341Z,20.70
2023-02-11T12:14:52.000Z,19.07
2023-02-11T12:17:24.654Z,24.53
2023-02-11T12:20:15.530Z,25.00
2023-02-11T12:22:51.141Z,26.53
2023-02-11T12:25:26.067Z,23.93
2023-02-11T12:27:58.050Z,25.03
2023-02-11T12:30:37.503Z,22.50
2023-02-11T12:33:09.518Z,22.97
2023-02-11T12:35:40.958Z,21.10
2023-02-11T12:38:16.091Z,23.13
2023-02-11T12:40:45.801Z,19.53
2023-02-11T12:43:16.639Z,20.60
2023-02-11T12:45:54.988Z,24.33
2023-02-11T12:48:28.012Z,21.63
2023-02-11T12:50:57.634Z,19.57
2023-02-11T12:53:29.431Z,18.03
2023-02-11T12:55:58.486Z,17.77
2023-02-11T12:58:42.903Z,16.93
2023-02-11T13:01:14.690Z,16.47
2023-02-11T13:03:45.396Z,20.87
2023-02-11T13:06:14.549Z,14.67
2023-02-11T13:08:43.925Z,15.03
2023-02-11T13:11:15.044Z,17.40
2023-02-11T13:13:48.473Z,13.13
2023-02-11T13:16:19.172Z,14.40
2023-02-11T13:18:51.524Z,12.10
2023-02-11T13:21:33.782Z,11.93
2023-02-11T13:24:05.654Z,11.20
2023-02-11T13:26:35.451Z,12.10
2023-02-11T13:29:08.659Z,10.40
2023-02-11T13:31:37.363Z,10.97
2023-02-11T13:34:09.535Z,20.47
2023-02-11T13:36:37.920Z,10.13
2023-02-11T13:39:06.706Z,11.13
2023-02-11T13:41:36.445Z,12.30
2023-02-11T13:44:19.287Z,11.23
2023-02-11T13:46:55.042Z,13.27
2023-02-11T13:49:25.792Z,13.73
2023-02-11T13:51:54.256Z,10.97
2023-02-11T13:54:24.569Z,9.23
2023-02-11T13:57:07.837Z,9.53
2023-02-11T13:59:46.153Z,10.73
2023-02-11T14:02:40.281Z,9.50
2023-02-11T14:05:44.352Z,8.97
2023-02-11T14:08:37.501Z,9.07
2023-02-11T14:11:12.360Z,10.33
2023-02-11T14:14:14.406Z,8.40
2023-02-11T14:16:57.716Z,8.97
2023-02-11T14:19:33.046Z,8.97
2023-02-11T14:22:05.146Z,11.70
2023-02-11T14:24:53.413Z,9.73
2023-02-11T14:27:26.330Z,7.33
2023-02-11T14:29:59.369Z,12.63
2023-02-11T14:32:33.832Z,15.37
2023-02-11T14:35:02.652Z,8.93
2023-02-11T14:37:35.477Z,9.27
2023-02-11T14:40:10.198Z,10.70
2023-02-11T14:42:38.662Z,11.43
2023-02-11T14:45:08.123Z,9.27
2023-02-11T14:47:38.838Z,9.80
2023-02-11T14:50:09.982Z,8.80
2023-02-11T14:52:39.957Z,10.53
2023-02-11T14:55:11.398Z,12.93
2023-02-11T14:57:39.831Z,11.40
2023-02-11T15:00:21.620Z,9.53
2023-02-11T15:02:50.423Z,11.03
2023-02-11T15:05:20.211Z,9.47
2023-02-11T15:07:50.774Z,10.23
2023-02-11T15:10:23.683Z,12.27
2023-02-11T15:12:52.066Z,10.30
2023-02-11T15:15:20.648Z,10.57
2023-02-11T15:17:49.038Z,10.17
2023-02-11T15:20:21.526Z,8.47
2023-02-11T15:22:51.506Z,10.17
2023-02-11T15:25:20.279Z,12.20
2023-02-11T15:27:49.256Z,10.33
2023-02-11T15:30:28.247Z,13.20
2023-02-11T15:32:58.905Z,12.43
2023-02-11T15:35:28.673Z,9.73
2023-02-11T15:37:58.824Z,7.83
2023-02-11T15:40:28.919Z,11.37
2023-02-11T15:42:58.777Z,8.60
2023-02-11T15:45:29.861Z,9.20
2023-02-11T15:47:59.455Z,10.57
2023-02-11T15:50:30.412Z,9.70
2023-02-11T15:53:00.922Z,11.63
2023-02-11T15:55:29.405Z,9.60
2023-02-11T15:57:58.184Z,13.03
2023-02-11T16:00:27.071Z,12.23
2023-02-11T16:02:55.670Z,12.83
2023-02-11T16:05:26.969Z,11.37
2023-02-11T16:07:55.795Z,8.63
2023-02-11T16:10:26.710Z,9.97
2023-02-11T16:13:01.126Z,10.93
2023-02-11T16:15:47.550Z,7.90
2023-02-11T16:18:17.821Z,18.17
2023-02-11T16:20:48.828Z,10.10
2023-02-11T16:23:20.111Z,10.37
2023-02-11T16:25:51.655Z,8.47
2023-02-11T16:28:20.318Z,10.50
2023-02-11T16:30:48.963Z,12.60
2023-02-11T16:33:17.542Z,9.37
2023-02-11T16:35:47.667Z,10.47
2023-02-11T16:38:16.215Z,11.90
2023-02-11T16:40:46.309Z,12.20
2023-02-11T16:43:16.105Z,13.83
2023-02-11T16:45:44.712Z,9.97
2023-02-11T16:48:14.781Z,9.87
2023-02-11T16:50:44.560Z,10.63
2023-02-11T16:53:13.275Z,9.27
2023-02-11T16:55:41.978Z,13.13
2023-02-11T16:58:10.550Z,10.47
2023-02-11T17:00:40.412Z,11.40
2023-02-11T17:03:09.069Z,13.57
2023-02-11T17:05:53.193Z,10.83
2023-02-11T17:08:23.254Z,11.73
2023-02-11T17:10:52.148Z,8.73
2023-02-11T17:13:30.100Z,11.53
2023-02-11T17:15:59.943Z,11.60
2023-02-11T17:18:28.389Z,9.57
2023-02-11T17:20:58.104Z,12.63
2023-02-11T17:23:26.627Z,9.03
2023-02-11T17:25:57.356Z,12.23
2023-02-11T17:28:25.827Z,13.97
2023-02-11T17:30:54.488Z,14.90
2023-02-11T17:33:24.384Z,13.00
2023-02-11T17:35:53.366Z,11.63
2023-02-11T17:38:22.110Z,12.27
2023-02-11T17:40:58.754Z,12.63
2023-02-11T17:43:27.558Z,13.53
2023-02-11T17:45:56.341Z,12.03
2023-02-11T17:48:26.453Z,16.20
2023-02-11T17:50:54.945Z,11.40
2023-02-11T17:53:23.522Z,12.93
2023-02-11T17:55:52.172Z,14.37
2023-02-11T17:58:20.849Z,12.60
2023-02-11T18:00:49.416Z,13.13
2023-02-11T18:03:18.848Z,13.87
2023-02-11T18:05:48.768Z,13.90
2023-02-11T18:08:17.325Z,11.93
2023-02-11T18:10:45.769Z,13.47
2023-02-11T18:13:16.424Z,11.00
2023-02-11T18:15:44.988Z,13.17
2023-02-11T18:18:13.564Z,13.03
2023-02-11T18:20:43.059Z,9.93
2023-02-11T18:23:12.968Z,11.77
2023-02-11T18:25:43.334Z,11.37
2023-02-11T18:28:11.804Z,15.47
2023-02-11T18:30:40.313Z,13.30
2023-02-11T18:33:12.082Z,13.17
2023-02-11T18:35:42.981Z,14.60
2023-02-11T18:38:13.940Z,12.57
2023-02-11T18:40:42.419Z,12.47
2023-02-11T18:43:10.828Z,17.20
2023-02-11T18:45:39.317Z,15.33
2023-02-11T18:48:07.847Z,11.77
2023-02-11T18:50:36.335Z,13.07
2023-02-11T18:53:04.925Z,14.40
2023-02-11T18:55:34.824Z,11.73
2023-02-11T18:58:03.798Z,10.77
2023-02-11T19:00:32.396Z,16.37
2023-02-11T19:03:01.041Z,14.93
2023-02-11T19:05:33.533Z,15.67
2023-02-11T19:08:02.269Z,11.47
2023-02-11T19:10:30.804Z,15.00
2023-02-11T19:13:00.767Z,12.77
2023-02-11T19:15:29.224Z,15.00
2023-02-11T19:17:57.766Z,15.90
2023-02-11T19:39:44.655Z,13.87
2023-02-11T19:42:13.254Z,15.37
2023-02-11T19:44:41.718Z,12.90
2023-02-11T19:47:10.818Z,12.33
2023-02-11T19:49:39.349Z,11.27
2023-02-11T19:52:07.782Z,12.03
2023-02-11T19:54:37.726Z,15.13
2023-02-11T19:57:06.309Z,13.87
2023-02-11T19:59:34.795Z,14.80
2023-02-11T20:02:03.287Z,12.80
2023-02-11T20:04:32.267Z,14.20
2023-02-11T20:07:00.895Z,13.23
2023-02-11T20:09:31.339Z,12.57
2023-02-11T20:12:01.531Z,12.67
2023-02-11T20:14:29.997Z,16.20
2023-02-11T20:16:58.734Z,12.67
2023-02-11T20:19:27.991Z,13.23
2023-02-11T20:21:56.659Z,12.20
2023-02-11T20:24:25.194Z,12.97
2023-02-11T20:26:55.858Z,11.10
2023-02-11T20:29:26.224Z,12.23
2023-02-11T20:31:54.896Z,12.90
2023-02-11T20:34:23.486Z,13.37
2023-02-11T20:36:52.884Z,12.27
2023-02-11T20:39:22.686Z,13.47
2023-02-11T20:41:51.578Z,13.33
2023-02-11T20:44:21.862Z,13.77
2023-02-11T20:46:52.087Z,16.17
2023-02-11T20:49:21.301Z,19.47
2023-02-11T20:51:50.216Z,15.80
2023-02-11T20:54:20.222Z,13.10
2023-02-11T20:56:48.766Z,12.97
2023-02-11T20:59:18.708Z,13.33
2023-02-11T21:01:47.991Z,12.60
2023-02-11T21:04:27.585Z,14.83
2023-02-11T21:06:56.547Z,15.50
2023-02-11T21:09:25.855Z,17.00
2023-02-11T21:11:55.399Z,15.60
2023-02-11T21:14:24.264Z,16.67
2023-02-11T21:16:52.985Z,14.47
2023-02-11T21:19:24.457Z,14.73
2023-02-11T21:21:53.145Z,13.07
2023-02-11T21:24:22.166Z,15.13
2023-02-11T21:26:51.101Z,22.40
2023-02-11T21:29:20.414Z,15.33
2023-02-11T21:31:49.112Z,14.90
2023-02-11T21:34:22.507Z,13.33
2023-02-11T21:36:52.983Z,15.50
2023-02-11T21:39:23.135Z,13.10
2023-02-11T21:41:53.443Z,17.37
2023-02-11T21:44:21.975Z,17.37
2023-02-11T21:46:54.291Z,12.93
2023-02-11T21:49:22.934Z,14.57
2023-02-11T21:51:52.958Z,13.07
2023-02-11T21:54:21.531Z,16.23
2023-02-11T21:57:01.238Z,18.93
2023-02-11T21:59:33.855Z,16.37
2023-02-11T22:02:04.192Z,16.53
2023-02-11T22:04:33.518Z,17.33
2023-02-11T22:07:08.767Z,16.90
2023-02-11T22:09:37.197Z,18.70
2023-02-11T22:12:05.941Z,19.47
2023-02-11T22:14:34.578Z,15.93
2023-02-11T22:17:03.072Z,17.03
2023-02-11T22:19:33.225Z,17.77
2023-02-11T22:22:01.851Z,18.07
2023-02-11T22:24:31.754Z,17.10
2023-02-11T22:27:00.274Z,18.63
2023-02-11T22:29:28.728Z,17.27
2023-02-11T22:31:57.244Z,18.33
2023-02-11T22:34:26.475Z,18.40
2023-02-11T22:36:55.293Z,17.97
2023-02-11T22:39:24.101Z,16.03
2023-02-11T22:41:56.563Z,19.73
2023-02-11T22:44:25.112Z,17.77
2023-02-11T22:46:53.794Z,17.23
2023-02-11T22:49:22.601Z,20.13
2023-02-11T22:51:51.153Z,18.57
2023-02-11T22:54:23.302Z,13.13
2023-02-11T22:56:51.878Z,15.17
2023-02-11T22:59:21.747Z,16.77
2023-02-11T23:01:50.821Z,16.17
2023-02-11T23:04:21.261Z,14.03
2023-02-11T23:06:50.454Z,17.00
2023-02-11T23:09:21.924Z,12.77
2023-02-11T23:11:54.351Z,14.40
2023-02-11T23:14:24.430Z,11.90
2023-02-11T23:16:53.190Z,14.70
2023-02-11T23:19:22.237Z,13.80
2023-02-11T23:21:52.152Z,12.87
2023-02-11T23:24:20.678Z,13.17
2023-02-11T23:26:49.179Z,10.83
2023-02-11T23:29:17.902Z,15.57
2023-02-11T23:31:48.018Z,15.60
2023-02-11T23:34:20.388Z,16.57
2023-02-11T23:36:48.976Z,15.03
2023-02-11T23:39:18.272Z,13.00
2023-02-11T23:41:47.067Z,14.77
2023-02-11T23:44:15.759Z,15.73
2023-02-11T23:46:44.885Z,12.03
2023-02-11T23:49:15.656Z,15.87
2023-02-11T23:51:44.914Z,14.97
2023-02-11T23:54:13.945Z,12.77
2023-02-11T23:56:43.970Z,17.50
2023-02-11T23:59:12.849Z,12.40
